METAR AND TAF INFORMATION
METAR FOR DTMB
ADDS - METARS form results

(0717 UTC 22 January 2019)
Data provider http://aviationweather.gov/metar/data/
 
METAR text: DTMB 220700Z 25011KT CAVOK 10/05 Q1012
Conditions at: DTMB (HABIB BOURGUIBA , TN) observed 0700 UTC 22 January 2019
Temperature: 10.0°C (50°F)
Dewpoint: 5.0°C (41°F) [RH = 71%]
Pressure (altimeter): 29.88 inches Hg (1012.0 mb)
Winds: from the WSW (250 degrees) at 13 MPH (11 knots; 5.7 m/s)
Visibility: 6 or more miles (10+ km)
Ceiling: ceiling and visibility are OK
Clouds: unknown
Weather: no significant weather observed at this time

METAR text: DTMB 220630Z 24008KT CAVOK 10/04 Q1012
Conditions at: DTMB (HABIB BOURGUIBA , TN) observed 0630 UTC 22 January 2019
Temperature: 10.0°C (50°F)
Dewpoint: 4.0°C (39°F) [RH = 66%]
Pressure (altimeter): 29.88 inches Hg (1012.0 mb)
Winds: from the WSW (240 degrees) at 9 MPH (8 knots; 4.1 m/s)
Visibility: 6 or more miles (10+ km)
Ceiling: ceiling and visibility are OK
Clouds: unknown
Weather: no significant weather observed at this time

Forecast for: DTMB (HABIB BOURGUIBA , TN)
Text: TAF DTMB 220500Z 2206/2306 25012KT 9999 FEW030
Forecast period: 0600 to 1400 UTC 22 January 2019
Forecast type: FROM: standard forecast or significant change
Winds: from the WSW (250 degrees) at 14 MPH (12 knots; 6.2 m/s)
Visibility: 6 or more miles 10+ km)
Ceiling: at least 12,000 feet AGL
Clouds: few clouds at 3000 feet AGL
Weather: no significant weather forecast for this period
Text: BECMG 2214/2216 VRB03KT
Forecast period: 1400 UTC 22 January 2019 to 0400 UTC 23 January 2019
Forecast type: BECOMING: Conditions expected to become as follows by 1600 UTC 22 January 2019
Winds: variable direction winds at 3 MPH (3 knots; 1.5 m/s)
Visibility: 6 or more miles 10+ km)
Ceiling: at least 12,000 feet AGL
Clouds: few clouds at 3000 feet AGL
Weather: no significant weather forecast for this period
Text: BECMG 2304/2306 21010KT
Forecast period: 0400 to 0600 UTC 23 January 2019
Forecast type: BECOMING: Conditions expected to become as follows by 0600 UTC 23 January 2019
Winds: from the SSW (210 degrees) at 12 MPH (10 knots; 5.1 m/s)
Visibility: 6 or more miles 10+ km)
Ceiling: at least 12,000 feet AGL
Clouds: few clouds at 3000 feet AGL
Weather: no significant weather forecast for this period

 AIRPORT MAP

 RUNWAY INFORMATION

 AIRPORT FREQUENCIES
Type APP Name BOURGUIBA Frequency 119.3 MHZ
Type ATIS Name MONASTIR A Frequency 113.1 MHZ
Type TWR Name BOURGUIBA Frequency 118.3 MHZ

 AIRPORT NEAR NAVIGATION AIDS
Type VOR-DME Name Monastir Frequency 113100 KHZ



2018 Air Astana Virtual Airline